Time;durP1;ratioP1;P1;durP2;ratioP2;P2;SDS_P1;SDS_P2;PMS_P1;PMS_P2;Temp;Humidity;BMP_temperature;BMP_pressure;BME280_temperature;BME280_humidity;BME280_pressure;Samples;Min_cycle;Max_cycle;Signal;HPM_P1;HPM_P2
2021/10/09 00:03:08;;;;;;;1.00;0.80;;;;;;;5.16;100.00;95326.97;10169459;29;20059;-71
2021/10/09 00:08:13;;;;;;;1.42;1.15;;;;;;;5.27;100.00;95316.41;10168010;29;20167;-70
2021/10/09 00:13:14;;;;;;;1.20;1.10;;;;;;;5.33;100.00;95319.19;10167989;29;20055;-69
2021/10/09 00:18:14;;;;;;;1.08;0.88;;;;;;;5.47;100.00;95316.13;10169268;29;20039;-67
2021/10/09 00:23:15;;;;;;;2.25;0.90;;;;;;;5.41;100.00;95311.66;10208366;29;20495;-72
2021/10/09 00:28:15;;;;;;;1.20;0.95;;;;;;;5.35;100.00;95314.44;10208351;29;20518;-72
2021/10/09 00:33:16;;;;;;;1.92;1.10;;;;;;;5.46;100.00;95303.00;10183440;29;20028;-69
2021/10/09 00:38:16;;;;;;;2.72;1.10;;;;;;;5.33;100.00;95303.19;10182173;29;20028;-68
2021/10/09 00:43:17;;;;;;;1.73;1.15;;;;;;;5.41;100.00;95301.00;10151143;29;20024;-69
2021/10/09 00:48:18;;;;;;;1.10;0.98;;;;;;;5.34;100.00;95299.50;10182544;29;20027;-70
2021/10/09 00:53:24;;;;;;;3.45;1.20;;;;;;;5.35;100.00;95298.47;10166430;29;20035;-73
2021/10/09 00:58:24;;;;;;;3.17;1.40;;;;;;;5.36;100.00;95294.72;10146791;29;20039;-69
2021/10/09 01:03:25;;;;;;;0.90;0.82;;;;;;;5.41;100.00;95289.53;10156310;29;20067;-70
2021/10/09 01:08:25;;;;;;;1.65;1.00;;;;;;;5.54;100.00;95289.38;10181360;29;20510;-68
2021/10/09 01:13:26;;;;;;;2.20;1.35;;;;;;;5.59;100.00;95286.81;10181879;29;20024;-68
2021/10/09 01:18:26;;;;;;;4.27;1.70;;;;;;;5.59;100.00;95289.47;10165386;29;20395;-69
2021/10/09 01:23:27;;;;;;;3.50;1.48;;;;;;;5.65;100.00;95285.91;10153964;29;20277;-69
2021/10/09 01:28:28;;;;;;;1.85;1.27;;;;;;;5.70;100.00;95287.09;10126186;29;20031;-70
2021/10/09 01:33:29;;;;;;;4.88;1.20;;;;;;;5.70;100.00;95282.56;10126388;29;20036;-70
2021/10/09 01:38:30;;;;;;;2.15;1.42;;;;;;;5.78;100.00;95284.09;10142112;29;20483;-69
2021/10/09 01:43:30;;;;;;;1.73;1.17;;;;;;;5.74;100.00;95277.59;10126666;29;20023;-69
2021/10/09 01:48:34;;;;;;;2.55;1.25;;;;;;;5.82;100.00;95269.25;10125546;29;20092;-70
2021/10/09 01:53:35;;;;;;;1.65;1.48;;;;;;;5.82;100.00;95271.91;10140692;29;20403;-70
2021/10/09 01:58:35;;;;;;;1.77;1.42;;;;;;;5.88;100.00;95273.66;10141138;29;20031;-75
2021/10/09 02:03:36;;;;;;;3.33;1.27;;;;;;;5.92;100.00;95271.34;10141023;29;20045;-73
2021/10/09 02:08:36;;;;;;;1.45;1.35;;;;;;;5.92;100.00;95274.81;10163835;29;20399;-71
2021/10/09 02:13:45;;;;;;;1.35;1.15;;;;;;;5.86;100.00;95274.94;10163556;29;20172;-67
2021/10/09 02:29:05;;;;;;;1.00;0.88;;;;;;;5.91;100.00;95273.19;10163055;29;20059;-68
2021/10/09 02:34:06;;;;;;;2.17;1.03;;;;;;;5.90;100.00;95274.25;10179508;29;20114;-69
2021/10/09 02:39:06;;;;;;;3.10;1.98;;;;;;;5.88;100.00;95279.00;10163080;29;20813;-72
2021/10/09 02:44:06;;;;;;;5.15;1.90;;;;;;;5.91;100.00;95280.41;10161965;29;20020;-68
2021/10/09 02:49:07;;;;;;;8.45;1.73;;;;;;;5.93;100.00;95279.13;10146851;29;20058;-72
2021/10/09 02:54:07;;;;;;;1.70;1.00;;;;;;;5.95;100.00;95269.03;10177782;29;20578;-70
2021/10/09 02:59:08;;;;;;;1.55;0.90;;;;;;;5.91;100.00;95269.72;10161647;29;20283;-69
2021/10/09 03:04:08;;;;;;;1.33;1.00;;;;;;;5.90;100.00;95276.94;10162272;29;20047;-76
2021/10/09 03:09:08;;;;;;;2.42;0.70;;;;;;;5.74;100.00;95273.06;10162392;29;20036;-75
2021/10/09 03:14:09;;;;;;;0.60;0.60;;;;;;;5.74;100.00;95269.59;10161492;29;20072;-68
2021/10/09 03:19:09;;;;;;;3.13;0.80;;;;;;;5.73;100.00;95267.94;10177615;29;20794;-69
2021/10/09 03:24:10;;;;;;;1.13;0.97;;;;;;;5.79;100.00;95267.84;10161518;29;20335;-69
2021/10/09 03:29:10;;;;;;;0.52;0.50;;;;;;;5.64;100.00;95267.47;10162491;29;20272;-71
2021/10/09 03:34:10;;;;;;;1.35;0.93;;;;;;;5.69;100.00;95264.91;10161055;29;20686;-68
2021/10/09 03:39:15;;;;;;;1.20;1.10;;;;;;;5.73;100.00;95262.63;10162253;29;20028;-70
2021/10/09 03:44:15;;;;;;;1.25;1.05;;;;;;;5.79;100.00;95259.03;10161234;29;20027;-68
2021/10/09 03:54:19;;;;;;;0.70;0.60;;;;;;;5.81;100.00;95259.63;10162783;29;20387;-68
2021/10/09 03:59:19;;;;;;;1.73;1.23;;;;;;;5.86;100.00;95258.91;10162332;29;20032;-71
2021/10/09 04:04:22;;;;;;;1.53;1.37;;;;;;;5.89;100.00;95269.97;10160477;29;20332;-68
2021/10/09 04:09:23;;;;;;;3.22;1.77;;;;;;;5.93;100.00;95264.97;10177682;29;20280;-69
2021/10/09 04:14:23;;;;;;;2.70;2.40;;;;;;;5.85;100.00;95266.13;10168660;29;20024;-69
2021/10/09 04:19:24;;;;;;;7.70;2.43;;;;;;;5.91;100.00;95270.53;10183176;29;20024;-69
2021/10/09 04:24:24;;;;;;;2.07;1.80;;;;;;;5.87;100.00;95271.22;10184183;29;20670;-70
2021/10/09 04:29:25;;;;;;;2.00;1.60;;;;;;;5.87;100.00;95271.22;10183217;29;20375;-70
2021/10/09 04:34:27;;;;;;;2.50;1.50;;;;;;;5.89;100.00;95274.47;10167047;29;20288;-70
2021/10/09 04:39:27;;;;;;;3.10;1.88;;;;;;;5.85;100.00;95263.44;10167896;29;20462;-70
2021/10/09 04:44:28;;;;;;;2.83;1.83;;;;;;;5.96;100.00;95281.31;10182957;29;20095;-68
2021/10/09 04:49:30;;;;;;;3.08;2.47;;;;;;;5.90;100.00;95274.25;10166373;29;20288;-67
2021/10/09 04:54:31;;;;;;;1.75;1.65;;;;;;;5.94;100.00;95283.41;10167366;29;20032;-68
2021/10/09 04:59:31;;;;;;;1.60;1.50;;;;;;;5.88;100.00;95281.66;10166694;29;20036;-69
2021/10/09 05:04:32;;;;;;;3.10;1.38;;;;;;;5.89;100.00;95282.47;10159779;29;20138;-69
2021/10/09 05:09:32;;;;;;;2.15;1.40;;;;;;;5.80;100.00;95285.50;10166188;29;20402;-68
2021/10/09 05:14:32;;;;;;;2.17;1.60;;;;;;;5.82;100.00;95282.59;10165283;29;20039;-70
2021/10/09 05:19:33;;;;;;;1.67;1.40;;;;;;;5.82;100.00;95290.59;10165466;29;20269;-70
2021/10/09 05:24:33;;;;;;;3.08;2.22;;;;;;;5.79;100.00;95291.03;10180906;29;20658;-68
2021/10/09 05:29:34;;;;;;;3.85;2.70;;;;;;;5.73;100.00;95287.44;10166519;29;20486;-69
2021/10/09 05:34:35;;;;;;;2.90;2.07;;;;;;;5.84;100.00;95287.69;10149198;29;20106;-75
2021/10/09 05:39:35;;;;;;;3.17;2.22;;;;;;;5.94;100.00;95293.25;10165200;29;20283;-68
2021/10/09 05:44:35;;;;;;;3.53;2.93;;;;;;;5.91;100.00;95305.19;10164844;29;20032;-69
2021/10/09 05:49:38;;;;;;;4.43;3.10;;;;;;;5.91;100.00;95304.41;10179562;29;20279;-69
2021/10/09 05:54:47;;;;;;;7.45;2.15;;;;;;;5.85;100.00;95307.97;10164036;29;20024;-71
2021/10/09 07:03:03;;;;;;;1.02;0.60;;;;;;;6.26;100.00;95336.50;10162409;29;20052;-71
2021/10/09 07:08:09;;;;;;;0.50;0.35;;;;;;;6.19;100.00;95325.13;10159184;29;20036;-70
2021/10/09 07:13:10;;;;;;;0.63;0.40;;;;;;;6.10;100.00;95324.66;10197053;29;20028;-69
2021/10/09 07:18:12;;;;;;;0.93;0.73;;;;;;;6.01;100.00;95341.22;10183446;29;20043;-69
2021/10/09 07:23:13;;;;;;;5.38;1.52;;;;;;;5.97;100.00;95335.50;10190619;29;20091;-72
2021/10/09 07:28:13;;;;;;;0.80;0.80;;;;;;;5.95;100.00;95330.38;10163224;29;20095;-72
2021/10/09 07:33:14;;;;;;;1.57;0.97;;;;;;;6.03;100.00;95329.28;10161066;29;20039;-69
2021/10/09 07:38:14;;;;;;;4.22;1.88;;;;;;;6.22;100.00;95343.31;10160918;29;20375;-68
2021/10/09 07:43:16;;;;;;;2.72;1.67;;;;;;;6.62;100.00;95337.31;10172473;29;20542;-70
2021/10/09 07:48:16;;;;;;;1.52;1.02;;;;;;;6.92;100.00;95335.53;10176514;29;20163;-70
2021/10/09 07:53:16;;;;;;;1.60;0.80;;;;;;;6.89;100.00;95336.81;10167556;29;20123;-68
2021/10/09 07:58:17;;;;;;;2.80;1.10;;;;;;;6.84;100.00;95352.75;10170696;29;20288;-68
2021/10/09 08:03:23;;;;;;;3.80;0.93;;;;;;;6.98;100.00;95356.00;10168007;29;20315;-72
2021/10/09 08:08:23;;;;;;;2.20;1.00;;;;;;;6.74;100.00;95348.00;10152969;29;20331;-72
2021/10/09 08:13:24;;;;;;;1.87;0.83;;;;;;;6.67;100.00;95345.44;10179866;29;20404;-71
2021/10/09 08:18:24;;;;;;;1.20;0.80;;;;;;;6.69;100.00;95355.09;10176576;29;20296;-71
2021/10/09 08:23:28;;;;;;;1.17;0.80;;;;;;;6.69;100.00;95355.91;10176805;29;20418;-70
2021/10/09 08:39:09;;;;;;;4.80;1.10;;;;;;;6.35;100.00;95362.84;10131442;29;20028;-69
2021/10/09 08:44:09;;;;;;;3.75;1.58;;;;;;;6.31;100.00;95373.19;10164426;29;20479;-69
2021/10/09 08:49:10;;;;;;;7.03;1.58;;;;;;;6.41;100.00;95367.28;10166254;29;20499;-74
2021/10/09 08:54:12;;;;;;;1.20;1.10;;;;;;;6.29;100.00;95373.41;10166436;29;20038;-73
2021/10/09 08:59:23;;;;;;;2.38;1.40;;;;;;;6.30;100.00;95375.03;10165538;29;20040;-71
2021/10/09 09:04:51;;;;;;;1.33;0.82;;;;;;;6.30;100.00;95380.38;10168552;29;20071;-71
2021/10/09 09:26:03;;;;;;;5.85;2.28;;;;;;;6.68;100.00;95372.97;10165568;29;20119;-70
2021/10/09 09:31:25;;;;;;;2.90;1.98;;;;;;;6.85;100.00;95373.06;10165613;29;20024;-69
2021/10/09 09:42:01;;;;;;;2.25;1.35;;;;;;;7.02;100.00;95373.19;10165548;29;20027;-73
2021/10/09 09:47:09;;;;;;;3.80;1.58;;;;;;;7.12;100.00;95369.91;10163216;29;20032;-74
2021/10/09 09:52:10;;;;;;;1.30;1.02;;;;;;;7.03;100.00;95387.34;10177306;29;20036;-73
2021/10/09 09:57:12;;;;;;;2.78;1.27;;;;;;;6.87;100.00;95384.34;10180328;29;20024;-70
2021/10/09 10:02:18;;;;;;;1.50;1.15;;;;;;;6.69;100.00;95389.81;10163149;29;20056;-70
2021/10/09 10:07:20;;;;;;;4.70;3.03;;;;;;;6.54;100.00;95395.59;10161590;29;20072;-72
2021/10/09 10:12:24;;;;;;;2.03;1.60;;;;;;;6.61;100.00;95397.09;10168224;29;20031;-68
2021/10/09 10:17:42;;;;;;;1.63;1.25;;;;;;;6.70;100.00;95384.25;10148017;29;20039;-72
2021/10/09 10:22:43;;;;;;;3.47;1.13;;;;;;;6.70;100.00;95392.25;10182857;29;20036;-71
2021/10/09 10:27:45;;;;;;;1.73;1.33;;;;;;;6.71;100.00;95380.50;10197516;29;20028;-72
2021/10/09 10:32:54;;;;;;;2.42;1.20;;;;;;;6.97;100.00;95381.88;10169934;29;20513;-70
2021/10/09 10:37:58;;;;;;;1.55;1.42;;;;;;;7.05;100.00;95382.56;10162277;29;20144;-74
2021/10/09 10:43:46;;;;;;;1.77;1.05;;;;;;;6.90;100.00;95373.19;10168448;29;20027;-73
2021/10/09 10:59:34;;;;;;;5.70;2.95;;;;;;;6.77;100.00;95378.78;10174701;29;20115;-77
2021/10/09 11:04:37;;;;;;;4.03;2.15;;;;;;;6.75;100.00;95376.31;10195250;29;20506;-71
2021/10/09 11:09:39;;;;;;;4.28;2.70;;;;;;;6.80;100.00;95384.47;10176714;29;20055;-70
2021/10/09 11:14:39;;;;;;;2.08;1.83;;;;;;;6.94;100.00;95390.38;10183497;29;20036;-72
2021/10/09 11:19:40;;;;;;;9.93;2.37;;;;;;;6.91;100.00;95374.81;10166868;29;20032;-73
2021/10/09 11:24:41;;;;;;;3.30;2.20;;;;;;;6.87;100.00;95370.19;10173029;29;20805;-74
2021/10/09 11:30:00;;;;;;;3.67;2.00;;;;;;;6.88;100.00;95366.44;10173263;29;20552;-71
2021/10/09 11:35:00;;;;;;;;;;;;;;;6.88;100.00;95364.59;10173659;29;20024;-73
2021/10/09 11:40:03;;;;;;;3.90;3.05;;;;;;;6.81;100.00;95370.06;10173223;29;19911;-71
2021/10/09 11:55:30;;;;;;;;;;;;;;;6.94;100.00;95369.00;10174854;29;20036;-69
2021/10/09 12:00:34;;;;;;;7.00;2.33;;;;;;;6.79;100.00;95374.81;10196141;29;19914;-72
2021/10/09 12:05:55;;;;;;;3.83;2.83;;;;;;;6.82;100.00;95369.03;10172807;29;20118;-75
2021/10/09 12:11:10;;;;;;;2.92;1.65;;;;;;;6.70;100.00;95370.88;10187181;29;20032;-75
2021/10/09 12:16:10;;;;;;;3.08;2.10;;;;;;;6.64;100.00;95367.28;10171215;29;20024;-77
2021/10/09 12:21:10;;;;;;;3.33;2.00;;;;;;;6.64;100.00;95367.28;10186513;29;20491;-71
2021/10/09 12:26:16;;;;;;;6.50;3.00;;;;;;;6.75;100.00;95378.19;10170707;29;20028;-74
2021/10/09 12:31:27;;;;;;;6.03;1.70;;;;;;;6.75;100.00;95373.66;10183090;29;20639;-71
2021/10/09 12:36:40;;;;;;;5.15;2.45;;;;;;;6.66;100.00;95381.22;10164291;29;20044;-71
2021/10/09 12:41:40;;;;;;;5.40;1.98;;;;;;;6.49;100.00;95391.78;10179356;29;20039;-71
2021/10/09 12:46:41;;;;;;;2.60;1.95;;;;;;;6.52;100.00;95395.84;10165850;29;20032;-74
2021/10/09 12:51:42;;;;;;;3.30;1.98;;;;;;;6.57;100.00;95405.81;10179394;29;20032;-72
2021/10/09 12:56:42;;;;;;;2.75;1.80;;;;;;;6.52;100.00;95419.03;10162737;29;20040;-75
2021/10/09 13:01:43;;;;;;;3.05;2.17;;;;;;;6.54;100.00;95414.31;10163822;29;20521;-69
2021/10/09 13:06:44;;;;;;;2.33;2.00;;;;;;;6.42;100.00;95427.63;10178750;29;20028;-75
2021/10/09 13:11:55;;;;;;;3.17;2.38;;;;;;;6.43;100.00;95430.09;10163184;29;20137;-74
2021/10/09 13:16:56;;;;;;;2.67;2.03;;;;;;;6.47;100.00;95441.94;10162820;29;20035;-74
2021/10/09 13:21:56;;;;;;;6.47;2.63;;;;;;;6.44;100.00;95433.56;10178208;29;20039;-71
2021/10/09 13:26:57;;;;;;;5.20;2.47;;;;;;;6.42;100.00;95430.28;10178127;29;20384;-73
2021/10/09 13:31:57;;;;;;;6.70;2.80;;;;;;;6.49;100.00;95423.00;10179592;29;20291;-74
2021/10/09 13:36:58;;;;;;;4.43;2.65;;;;;;;6.65;100.00;95429.53;10165887;29;20032;-74
2021/10/09 13:41:58;;;;;;;4.35;2.25;;;;;;;6.74;100.00;95440.66;10194292;29;20036;-74
2021/10/09 13:46:58;;;;;;;2.85;1.90;;;;;;;6.81;100.00;95438.72;10196393;29;20023;-77
2021/10/09 13:51:59;;;;;;;4.97;2.17;;;;;;;6.95;100.00;95434.78;10192152;29;20109;-73
2021/10/09 13:56:59;;;;;;;5.53;3.38;;;;;;;6.88;100.00;95434.06;10176880;29;20291;-75
2021/10/09 14:02:00;;;;;;;7.55;3.45;;;;;;;6.97;100.00;95440.69;10164458;29;20051;-75
2021/10/09 14:07:00;;;;;;;3.28;1.98;;;;;;;7.09;100.00;95446.03;10150501;29;20032;-71
2021/10/09 14:12:01;;;;;;;3.20;1.93;;;;;;;6.85;100.00;95445.19;10167890;29;20494;-70
2021/10/09 14:17:01;;;;;;;5.05;3.10;;;;;;;6.69;100.00;95438.69;10174531;29;20664;-75
2021/10/09 14:22:02;;;;;;;3.22;1.67;;;;;;;6.62;100.00;95438.81;10167717;29;20035;-71
2021/10/09 14:27:02;;;;;;;3.00;2.28;;;;;;;6.58;100.00;95439.50;10168068;29;20028;-75
2021/10/09 14:32:03;;;;;;;8.52;4.03;;;;;;;6.46;100.00;95431.47;10187007;29;20094;-73
2021/10/09 14:37:03;;;;;;;6.28;2.22;;;;;;;6.36;100.00;95426.69;10124175;29;20032;-71
2021/10/09 14:42:05;;;;;;;4.07;2.78;;;;;;;6.31;100.00;95427.38;10152450;29;20027;-74
2021/10/09 15:18:34;;;;;;;3.00;1.45;;;;;;;6.04;100.00;95442.97;10177464;29;20028;-69
2021/10/09 15:23:34;;;;;;;2.30;1.43;;;;;;;5.97;100.00;95451.06;10190924;29;20023;-70
2021/10/09 15:28:34;;;;;;;3.05;1.65;;;;;;;6.03;100.00;95441.34;10168952;29;20280;-69
2021/10/09 15:33:35;;;;;;;2.75;1.67;;;;;;;5.97;100.00;95448.41;10176142;29;20114;-74
2021/10/09 15:38:35;;;;;;;3.17;1.88;;;;;;;5.98;100.00;95444.69;10195408;29;20038;-71
2021/10/09 15:43:36;;;;;;;3.03;2.10;;;;;;;5.97;100.00;95448.41;10152330;29;20288;-70
2021/10/09 15:48:36;;;;;;;3.67;1.93;;;;;;;6.01;100.00;95450.63;10172757;29;20062;-72
2021/10/09 15:53:37;;;;;;;2.83;2.23;;;;;;;6.07;100.00;95450.53;10174264;29;20286;-69
2021/10/09 15:58:37;;;;;;;3.38;2.33;;;;;;;6.03;100.00;95446.69;10159310;29;20288;-69
2021/10/09 16:03:38;;;;;;;3.72;2.55;;;;;;;5.99;100.00;95443.66;10157458;29;20040;-69
2021/10/09 16:08:38;;;;;;;4.32;2.67;;;;;;;6.02;100.00;95447.72;10163952;29;20040;-71
2021/10/09 16:13:39;;;;;;;6.60;2.70;;;;;;;5.97;100.00;95456.41;10164701;29;20032;-73
2021/10/09 16:18:41;;;;;;;4.82;1.90;;;;;;;6.04;100.00;95447.50;10180521;29;20280;-68
2021/10/09 16:23:41;;;;;;;2.40;1.20;;;;;;;5.96;100.00;95449.41;10165361;29;20495;-69
2021/10/09 16:28:42;;;;;;;2.33;1.23;;;;;;;5.93;100.00;95444.53;10167487;29;20188;-75
2021/10/09 16:33:42;;;;;;;2.47;0.93;;;;;;;5.99;100.00;95453.50;10164910;29;20284;-73
2021/10/09 16:38:42;;;;;;;1.13;1.02;;;;;;;6.03;100.00;95446.69;10194865;29;20059;-72
2021/10/09 16:43:43;;;;;;;1.35;0.95;;;;;;;6.03;100.00;95452.03;10184756;29;20153;-70
2021/10/09 16:48:44;;;;;;;2.90;1.23;;;;;;;6.03;100.00;95451.19;10195148;29;20035;-74
2021/10/09 16:53:44;;;;;;;1.52;1.10;;;;;;;6.05;100.00;95454.47;10185890;29;20031;-69
2021/10/09 16:58:44;;;;;;;1.97;1.37;;;;;;;6.05;100.00;95454.47;10165661;29;20039;-76
2021/10/09 17:03:45;;;;;;;1.42;1.02;;;;;;;6.06;100.00;95458.75;10167543;29;20420;-70
2021/10/09 17:08:46;;;;;;;2.67;1.45;;;;;;;6.10;100.00;95457.28;10159610;29;20502;-74
2021/10/09 17:13:46;;;;;;;3.95;1.70;;;;;;;6.15;100.00;95465.38;10202440;29;20043;-74
2021/10/09 17:18:48;;;;;;;2.28;1.80;;;;;;;6.05;100.00;95465.13;10203732;29;20367;-73
2021/10/09 17:23:49;;;;;;;1.40;1.20;;;;;;;6.13;100.00;95460.28;10202700;29;20124;-73
2021/10/09 17:28:49;;;;;;;1.52;1.13;;;;;;;6.22;100.00;95471.44;10171796;29;20486;-73
2021/10/09 17:33:50;;;;;;;1.20;0.70;;;;;;;6.27;100.00;95468.91;10144614;29;20032;-69
2021/10/09 17:38:51;;;;;;;0.90;0.43;;;;;;;6.32;100.00;95482.41;10162044;29;20283;-68
2021/10/09 17:43:51;;;;;;;1.65;0.90;;;;;;;6.36;100.00;95473.94;10162783;29;20026;-73
2021/10/09 17:48:52;;;;;;;1.75;1.02;;;;;;;6.33;100.00;95473.38;10180341;29;20046;-74
2021/10/09 17:53:52;;;;;;;1.58;1.02;;;;;;;6.29;100.00;95480.19;10177697;28;20041;-74
2021/10/09 17:58:53;;;;;;;1.73;1.02;;;;;;;6.34;100.00;95482.19;10177679;29;20405;-72
2021/10/09 18:03:54;;;;;;;1.85;1.00;;;;;;;6.28;100.00;95481.22;10161331;29;20490;-68
2021/10/09 18:08:56;;;;;;;1.23;1.08;;;;;;;6.30;100.00;95489.00;10144650;29;20032;-72
2021/10/09 18:13:56;;;;;;;1.17;1.00;;;;;;;6.30;100.00;95483.66;10161734;29;20487;-70
2021/10/09 18:18:57;;;;;;;1.58;1.00;;;;;;;6.25;100.00;95486.19;10158790;29;20020;-72
2021/10/09 18:23:57;;;;;;;2.17;1.10;;;;;;;6.16;100.00;95488.38;10164616;29;20444;-72
2021/10/09 18:28:58;;;;;;;2.50;1.35;;;;;;;6.16;100.00;95489.19;10173783;29;20467;-72
2021/10/09 18:33:58;;;;;;;1.65;1.25;;;;;;;6.14;100.00;95488.59;10159802;29;20418;-69
2021/10/09 18:38:59;;;;;;;4.20;1.50;;;;;;;6.11;100.00;95482.91;10144109;29;20036;-72
2021/10/09 18:44:00;;;;;;;2.33;1.83;;;;;;;6.04;100.00;95488.34;10162699;29;20647;-72
2021/10/09 18:49:00;;;;;;;3.10;2.78;;;;;;;5.97;100.00;95488.44;10160086;29;20032;-70
2021/10/09 18:54:00;;;;;;;2.72;1.75;;;;;;;5.99;100.00;95485.53;10159359;29;20027;-67
2021/10/09 18:59:01;;;;;;;3.67;2.47;;;;;;;5.96;100.00;95470.75;10160152;29;20537;-73
2021/10/09 19:04:01;;;;;;;3.08;2.63;;;;;;;6.04;100.00;95484.84;10161349;29;20307;-73
2021/10/09 19:09:02;;;;;;;4.32;2.42;;;;;;;6.03;100.00;95477.88;10159364;29;20550;-74
2021/10/09 19:14:03;;;;;;;3.38;2.30;;;;;;;5.99;100.00;95477.53;10160069;29;20475;-72
2021/10/09 19:19:03;;;;;;;5.20;3.05;;;;;;;6.06;100.00;95482.78;10162907;29;20040;-70
2021/10/09 19:24:03;;;;;;;3.10;2.03;;;;;;;6.09;100.00;95482.31;10171286;29;20501;-72
2021/10/09 19:29:04;;;;;;;3.78;2.65;;;;;;;6.19;100.00;95487.91;10178704;29;20291;-75
2021/10/09 19:34:22;;;;;;;2.17;1.95;;;;;;;6.21;100.00;95477.84;10159088;29;20052;-73
2021/10/09 19:39:22;;;;;;;3.05;2.50;;;;;;;6.25;100.00;95486.19;10159720;29;20028;-74
2021/10/09 19:44:22;;;;;;;2.92;1.80;;;;;;;6.24;100.00;95477.38;10165526;29;20035;-74
2021/10/09 19:49:23;;;;;;;2.10;1.90;;;;;;;6.31;100.00;95486.09;10210388;29;20693;-69
2021/10/09 19:59:43;;;;;;;2.40;2.03;;;;;;;6.37;100.00;95492.41;10168353;29;20036;-73
2021/10/09 20:04:44;;;;;;;3.17;1.88;;;;;;;6.40;100.00;95488.47;10165867;29;20044;-72
2021/10/09 20:10:34;;;;;;;2.45;1.48;;;;;;;6.40;100.00;95493.81;10166661;29;20044;-69
2021/10/09 20:15:10;;;;;;;2.70;1.83;;;;;;;6.38;100.00;95496.69;10168418;29;20127;-75
2021/10/09 20:20:23;;;;;;;5.53;3.78;;;;;;;6.39;100.00;95498.34;10165329;29;20055;-75
2021/10/09 20:25:26;;;;;;;2.42;1.40;;;;;;;6.43;100.00;95504.84;10164506;29;20032;-70
2021/10/09 20:30:28;;;;;;;4.03;2.05;;;;;;;6.49;100.00;95487.91;10149370;29;20039;-69
2021/10/09 20:35:30;;;;;;;3.00;1.65;;;;;;;6.51;100.00;95493.00;10165509;29;20539;-72
2021/10/09 20:40:32;;;;;;;3.08;2.13;;;;;;;6.51;100.00;95487.66;10196709;29;20032;-71
2021/10/09 20:45:32;;;;;;;4.60;2.00;;;;;;;6.55;100.00;95480.84;10169667;29;20024;-74
2021/10/09 20:50:33;;;;;;;2.85;1.65;;;;;;;6.61;100.00;95481.78;10164995;29;20494;-70
2021/10/09 20:55:34;;;;;;;2.47;1.55;;;;;;;6.57;100.00;95478.75;10165859;29;20059;-73
2021/10/09 21:00:35;;;;;;;2.08;1.02;;;;;;;6.55;100.00;95477.34;10165361;29;20077;-75
2021/10/09 21:05:35;;;;;;;2.67;1.42;;;;;;;6.57;100.00;95473.41;10148130;29;20610;-70
2021/10/09 21:26:32;;;;;;;2.35;2.00;;;;;;;6.70;100.00;95468.88;10165114;29;20040;-73
2021/10/09 21:31:33;;;;;;;2.95;2.35;;;;;;;6.65;100.00;95457.03;10174425;29;20036;-72
2021/10/09 21:36:33;;;;;;;3.55;2.28;;;;;;;6.65;100.00;95454.38;10179321;29;20032;-76
2021/10/09 21:41:34;;;;;;;9.07;2.35;;;;;;;6.58;100.00;95463.53;10163913;29;20116;-72
2021/10/09 21:46:34;;;;;;;4.47;2.38;;;;;;;6.57;100.00;95457.41;10147309;29;20028;-72
2021/10/09 21:51:35;;;;;;;3.03;1.92;;;;;;;6.66;100.00;95458.66;10162937;29;20055;-71
2021/10/09 21:56:42;;;;;;;1.90;1.23;;;;;;;6.61;100.00;95469.22;10178051;29;20047;-68
2021/10/09 22:07:35;;;;;;;2.25;2.00;;;;;;;6.58;100.00;95467.00;10163636;29;20032;-72
2021/10/09 22:17:49;;;;;;;4.30;1.55;;;;;;;6.73;100.00;95463.91;10178422;28;20048;-73
2021/10/09 22:33:14;;;;;;;2.90;1.45;;;;;;;6.88;100.00;95459.97;10162840;29;20036;-74
2021/10/09 22:38:14;;;;;;;2.42;1.65;;;;;;;6.89;100.00;95445.56;10161235;29;20426;-70
2021/10/09 22:43:18;;;;;;;2.63;1.13;;;;;;;7.02;100.00;95450.69;10144938;29;20036;-72
2021/10/09 22:48:18;;;;;;;1.08;0.75;;;;;;;6.99;100.00;95454.63;10176985;29;20035;-74
2021/10/09 22:53:18;;;;;;;2.97;1.30;;;;;;;6.90;100.00;95445.34;10161702;29;20054;-70
2021/10/09 22:58:20;;;;;;;7.20;1.30;;;;;;;6.92;100.00;95440.59;10176112;29;20295;-70
2021/10/09 23:03:20;;;;;;;4.40;1.55;;;;;;;6.97;100.00;95447.88;10160500;29;20055;-73
2021/10/09 23:08:22;;;;;;;1.65;1.20;;;;;;;6.90;100.00;95445.34;10176165;29;20032;-70
2021/10/09 23:13:23;;;;;;;2.95;1.58;;;;;;;6.83;100.00;95445.44;10175764;29;20431;-70
2021/10/09 23:18:23;;;;;;;1.97;1.30;;;;;;;6.93;100.00;95450.19;10159883;29;20020;-72
2021/10/09 23:23:24;;;;;;;1.43;1.20;;;;;;;6.89;100.00;95449.03;10160815;29;20279;-75
2021/10/09 23:28:24;;;;;;;4.50;1.30;;;;;;;6.86;100.00;95444.16;10161233;29;20264;-76
2021/10/09 23:33:25;;;;;;;1.95;1.23;;;;;;;6.92;100.00;95440.59;10175599;29;20271;-73
2021/10/09 23:38:26;;;;;;;1.00;0.73;;;;;;;6.91;100.00;95446.16;10159937;29;20051;-77
2021/10/09 23:43:26;;;;;;;1.80;1.30;;;;;;;6.88;100.00;95434.06;10161016;29;20047;-72
2021/10/09 23:48:27;;;;;;;1.50;1.40;;;;;;;6.90;100.00;95436.50;10160890;29;20623;-76
2021/10/09 23:53:28;;;;;;;1.47;1.10;;;;;;;7.01;100.00;95435.69;10161584;29;20442;-70
2021/10/09 23:58:30;;;;;;;2.00;1.20;;;;;;;7.01;100.00;95447.19;10159556;29;20284;-73
